sensor_id;sensor_type;location;lat;lon;timestamp;P1;durP1;ratioP1;P2;durP2;ratioP2
5718;SDS011;2884;47.734;9.244;2024-03-06T00:02:10;4.50;;;3.97;;
5718;SDS011;2884;47.734;9.244;2024-03-06T00:04:36;5.90;;;4.10;;
5718;SDS011;2884;47.734;9.244;2024-03-06T00:07:02;4.27;;;3.87;;
5718;SDS011;2884;47.734;9.244;2024-03-06T00:09:27;5.80;;;4.43;;
5718;SDS011;2884;47.734;9.244;2024-03-06T00:11:54;4.50;;;4.10;;
5718;SDS011;2884;47.734;9.244;2024-03-06T00:14:20;4.93;;;4.53;;
5718;SDS011;2884;47.734;9.244;2024-03-06T00:16:49;6.73;;;4.50;;
5718;SDS011;2884;47.734;9.244;2024-03-06T00:19:19;4.87;;;4.53;;
5718;SDS011;2884;47.734;9.244;2024-03-06T00:21:45;6.07;;;4.30;;
5718;SDS011;2884;47.734;9.244;2024-03-06T00:24:12;4.37;;;4.07;;
5718;SDS011;2884;47.734;9.244;2024-03-06T00:26:41;5.00;;;4.60;;
5718;SDS011;2884;47.734;9.244;2024-03-06T00:29:09;4.00;;;3.70;;
5718;SDS011;2884;47.734;9.244;2024-03-06T00:31:35;4.47;;;4.07;;
5718;SDS011;2884;47.734;9.244;2024-03-06T00:34:01;5.20;;;4.70;;
5718;SDS011;2884;47.734;9.244;2024-03-06T00:36:27;5.93;;;5.30;;
5718;SDS011;2884;47.734;9.244;2024-03-06T00:38:53;5.07;;;4.67;;
5718;SDS011;2884;47.734;9.244;2024-03-06T00:41:19;5.33;;;4.93;;
5718;SDS011;2884;47.734;9.244;2024-03-06T00:43:48;7.03;;;5.67;;
5718;SDS011;2884;47.734;9.244;2024-03-06T00:46:14;6.07;;;5.20;;
5718;SDS011;2884;47.734;9.244;2024-03-06T00:48:40;6.50;;;6.00;;
5718;SDS011;2884;47.734;9.244;2024-03-06T00:51:08;5.63;;;5.13;;
5718;SDS011;2884;47.734;9.244;2024-03-06T00:53:35;5.70;;;4.80;;
5718;SDS011;2884;47.734;9.244;2024-03-06T00:56:00;5.50;;;4.80;;
5718;SDS011;2884;47.734;9.244;2024-03-06T00:58:26;5.60;;;5.10;;
5718;SDS011;2884;47.734;9.244;2024-03-06T01:00:52;5.17;;;4.77;;
5718;SDS011;2884;47.734;9.244;2024-03-06T01:03:18;5.90;;;5.40;;
5718;SDS011;2884;47.734;9.244;2024-03-06T01:05:43;6.30;;;5.27;;
5718;SDS011;2884;47.734;9.244;2024-03-06T01:08:10;5.00;;;4.50;;
5718;SDS011;2884;47.734;9.244;2024-03-06T01:10:36;4.57;;;4.10;;
5718;SDS011;2884;47.734;9.244;2024-03-06T01:13:02;5.30;;;4.80;;
5718;SDS011;2884;47.734;9.244;2024-03-06T01:15:28;5.23;;;4.73;;
5718;SDS011;2884;47.734;9.244;2024-03-06T01:17:53;4.87;;;4.47;;
5718;SDS011;2884;47.734;9.244;2024-03-06T01:20:19;6.00;;;4.93;;
5718;SDS011;2884;47.734;9.244;2024-03-06T01:22:45;5.50;;;4.90;;
5718;SDS011;2884;47.734;9.244;2024-03-06T01:25:12;4.97;;;4.63;;
5718;SDS011;2884;47.734;9.244;2024-03-06T01:27:37;4.43;;;4.13;;
5718;SDS011;2884;47.734;9.244;2024-03-06T01:30:03;4.13;;;3.83;;
5718;SDS011;2884;47.734;9.244;2024-03-06T01:32:30;4.03;;;3.70;;
5718;SDS011;2884;47.734;9.244;2024-03-06T01:34:56;4.53;;;4.13;;
5718;SDS011;2884;47.734;9.244;2024-03-06T01:37:22;4.03;;;3.73;;
5718;SDS011;2884;47.734;9.244;2024-03-06T01:39:47;3.80;;;3.43;;
5718;SDS011;2884;47.734;9.244;2024-03-06T01:42:13;4.77;;;3.70;;
5718;SDS011;2884;47.734;9.244;2024-03-06T01:44:39;4.27;;;3.97;;
5718;SDS011;2884;47.734;9.244;2024-03-06T01:47:05;3.80;;;3.50;;
5718;SDS011;2884;47.734;9.244;2024-03-06T01:49:32;5.73;;;4.17;;
5718;SDS011;2884;47.734;9.244;2024-03-06T01:51:58;6.30;;;4.17;;
5718;SDS011;2884;47.734;9.244;2024-03-06T01:54:25;3.90;;;3.60;;
5718;SDS011;2884;47.734;9.244;2024-03-06T01:56:51;5.00;;;4.40;;
5718;SDS011;2884;47.734;9.244;2024-03-06T01:59:17;7.37;;;3.90;;
5718;SDS011;2884;47.734;9.244;2024-03-06T02:01:44;4.47;;;4.17;;
5718;SDS011;2884;47.734;9.244;2024-03-06T02:04:11;3.97;;;3.67;;
5718;SDS011;2884;47.734;9.244;2024-03-06T02:06:40;4.60;;;3.80;;
5718;SDS011;2884;47.734;9.244;2024-03-06T02:09:06;4.80;;;3.90;;
5718;SDS011;2884;47.734;9.244;2024-03-06T02:11:33;4.27;;;3.87;;
5718;SDS011;2884;47.734;9.244;2024-03-06T02:13:59;3.17;;;3.00;;
5718;SDS011;2884;47.734;9.244;2024-03-06T02:16:25;4.50;;;4.20;;
5718;SDS011;2884;47.734;9.244;2024-03-06T02:18:52;3.73;;;3.43;;
5718;SDS011;2884;47.734;9.244;2024-03-06T02:21:22;4.57;;;4.17;;
5718;SDS011;2884;47.734;9.244;2024-03-06T02:23:49;3.57;;;3.27;;
5718;SDS011;2884;47.734;9.244;2024-03-06T02:26:22;3.50;;;3.30;;
5718;SDS011;2884;47.734;9.244;2024-03-06T02:28:52;4.17;;;3.87;;
5718;SDS011;2884;47.734;9.244;2024-03-06T02:31:19;3.27;;;3.07;;
5718;SDS011;2884;47.734;9.244;2024-03-06T02:33:46;3.70;;;3.30;;
5718;SDS011;2884;47.734;9.244;2024-03-06T02:36:13;4.23;;;3.83;;
5718;SDS011;2884;47.734;9.244;2024-03-06T02:38:39;3.70;;;3.40;;
5718;SDS011;2884;47.734;9.244;2024-03-06T02:41:06;5.33;;;3.90;;
5718;SDS011;2884;47.734;9.244;2024-03-06T02:43:35;4.03;;;3.67;;
5718;SDS011;2884;47.734;9.244;2024-03-06T02:46:01;3.97;;;3.67;;
5718;SDS011;2884;47.734;9.244;2024-03-06T02:48:27;5.77;;;3.80;;
5718;SDS011;2884;47.734;9.244;2024-03-06T02:50:53;4.30;;;3.70;;
5718;SDS011;2884;47.734;9.244;2024-03-06T02:53:19;4.60;;;3.57;;
5718;SDS011;2884;47.734;9.244;2024-03-06T02:55:45;4.53;;;4.20;;
5718;SDS011;2884;47.734;9.244;2024-03-06T02:58:11;7.20;;;3.87;;
5718;SDS011;2884;47.734;9.244;2024-03-06T03:00:39;4.50;;;4.13;;
5718;SDS011;2884;47.734;9.244;2024-03-06T03:03:05;5.03;;;3.90;;
5718;SDS011;2884;47.734;9.244;2024-03-06T03:05:31;5.27;;;4.10;;
5718;SDS011;2884;47.734;9.244;2024-03-06T03:07:58;5.07;;;4.67;;
5718;SDS011;2884;47.734;9.244;2024-03-06T03:10:25;5.00;;;4.60;;
5718;SDS011;2884;47.734;9.244;2024-03-06T03:12:51;7.60;;;5.20;;
5718;SDS011;2884;47.734;9.244;2024-03-06T03:15:17;5.33;;;4.97;;
5718;SDS011;2884;47.734;9.244;2024-03-06T03:17:43;6.23;;;5.63;;
5718;SDS011;2884;47.734;9.244;2024-03-06T03:20:08;5.00;;;4.70;;
5718;SDS011;2884;47.734;9.244;2024-03-06T03:22:36;5.57;;;5.13;;
5718;SDS011;2884;47.734;9.244;2024-03-06T03:25:11;5.00;;;4.60;;
5718;SDS011;2884;47.734;9.244;2024-03-06T03:27:37;5.07;;;4.63;;
5718;SDS011;2884;47.734;9.244;2024-03-06T03:30:08;7.07;;;5.40;;
5718;SDS011;2884;47.734;9.244;2024-03-06T03:32:38;5.30;;;4.90;;
5718;SDS011;2884;47.734;9.244;2024-03-06T03:35:07;6.00;;;5.00;;
5718;SDS011;2884;47.734;9.244;2024-03-06T03:37:33;5.40;;;4.90;;
5718;SDS011;2884;47.734;9.244;2024-03-06T03:39:59;5.40;;;5.00;;
5718;SDS011;2884;47.734;9.244;2024-03-06T03:42:25;5.23;;;4.83;;
5718;SDS011;2884;47.734;9.244;2024-03-06T03:44:51;6.47;;;4.77;;
5718;SDS011;2884;47.734;9.244;2024-03-06T03:47:18;6.30;;;5.70;;
5718;SDS011;2884;47.734;9.244;2024-03-06T03:49:44;7.90;;;4.90;;
5718;SDS011;2884;47.734;9.244;2024-03-06T03:52:09;4.80;;;4.50;;
5718;SDS011;2884;47.734;9.244;2024-03-06T03:54:35;7.00;;;5.93;;
5718;SDS011;2884;47.734;9.244;2024-03-06T03:57:01;4.83;;;4.43;;
5718;SDS011;2884;47.734;9.244;2024-03-06T03:59:27;4.87;;;4.50;;
5718;SDS011;2884;47.734;9.244;2024-03-06T04:01:53;4.27;;;3.87;;
5718;SDS011;2884;47.734;9.244;2024-03-06T04:04:18;4.77;;;4.37;;
5718;SDS011;2884;47.734;9.244;2024-03-06T04:06:44;4.93;;;4.60;;
5718;SDS011;2884;47.734;9.244;2024-03-06T04:09:11;5.57;;;5.17;;
5718;SDS011;2884;47.734;9.244;2024-03-06T04:11:37;5.67;;;5.17;;
5718;SDS011;2884;47.734;9.244;2024-03-06T04:14:06;4.97;;;4.57;;
5718;SDS011;2884;47.734;9.244;2024-03-06T04:16:33;5.40;;;4.90;;
5718;SDS011;2884;47.734;9.244;2024-03-06T04:18:59;6.50;;;5.90;;
5718;SDS011;2884;47.734;9.244;2024-03-06T04:21:25;8.30;;;6.20;;
5718;SDS011;2884;47.734;9.244;2024-03-06T04:23:52;6.97;;;6.27;;
5718;SDS011;2884;47.734;9.244;2024-03-06T04:26:17;6.50;;;5.90;;
5718;SDS011;2884;47.734;9.244;2024-03-06T04:28:43;6.23;;;5.63;;
5718;SDS011;2884;47.734;9.244;2024-03-06T04:31:09;6.10;;;5.13;;
5718;SDS011;2884;47.734;9.244;2024-03-06T04:33:36;4.97;;;4.57;;
5718;SDS011;2884;47.734;9.244;2024-03-06T04:36:02;6.30;;;5.40;;
5718;SDS011;2884;47.734;9.244;2024-03-06T04:38:31;6.00;;;4.97;;
5718;SDS011;2884;47.734;9.244;2024-03-06T04:41:00;5.90;;;5.40;;
5718;SDS011;2884;47.734;9.244;2024-03-06T04:43:26;5.70;;;5.20;;
5718;SDS011;2884;47.734;9.244;2024-03-06T04:45:51;6.50;;;5.90;;
5718;SDS011;2884;47.734;9.244;2024-03-06T04:48:17;5.77;;;5.10;;
5718;SDS011;2884;47.734;9.244;2024-03-06T04:50:43;6.07;;;5.53;;
5718;SDS011;2884;47.734;9.244;2024-03-06T04:53:10;5.40;;;5.00;;
5718;SDS011;2884;47.734;9.244;2024-03-06T04:55:36;5.70;;;5.10;;
5718;SDS011;2884;47.734;9.244;2024-03-06T04:58:08;6.33;;;5.73;;
5718;SDS011;2884;47.734;9.244;2024-03-06T05:00:38;6.50;;;5.13;;
5718;SDS011;2884;47.734;9.244;2024-03-06T05:03:04;5.60;;;5.10;;
5718;SDS011;2884;47.734;9.244;2024-03-06T05:05:30;6.23;;;5.53;;
5718;SDS011;2884;47.734;9.244;2024-03-06T05:07:57;5.97;;;5.47;;
5718;SDS011;2884;47.734;9.244;2024-03-06T05:10:26;5.20;;;4.73;;
5718;SDS011;2884;47.734;9.244;2024-03-06T05:12:52;4.77;;;4.43;;
5718;SDS011;2884;47.734;9.244;2024-03-06T05:15:21;5.20;;;4.80;;
5718;SDS011;2884;47.734;9.244;2024-03-06T05:17:46;4.90;;;4.50;;
5718;SDS011;2884;47.734;9.244;2024-03-06T05:20:12;4.07;;;3.77;;
5718;SDS011;2884;47.734;9.244;2024-03-06T05:22:38;4.07;;;3.77;;
5718;SDS011;2884;47.734;9.244;2024-03-06T05:25:07;4.87;;;3.77;;
5718;SDS011;2884;47.734;9.244;2024-03-06T05:27:38;3.63;;;3.43;;
5718;SDS011;2884;47.734;9.244;2024-03-06T05:30:04;4.50;;;3.83;;
5718;SDS011;2884;47.734;9.244;2024-03-06T05:32:34;4.33;;;3.93;;
5718;SDS011;2884;47.734;9.244;2024-03-06T05:35:00;3.70;;;3.40;;
5718;SDS011;2884;47.734;9.244;2024-03-06T05:37:25;4.10;;;3.70;;
5718;SDS011;2884;47.734;9.244;2024-03-06T05:39:51;3.93;;;3.60;;
5718;SDS011;2884;47.734;9.244;2024-03-06T05:42:19;6.33;;;3.73;;
5718;SDS011;2884;47.734;9.244;2024-03-06T05:44:46;3.40;;;3.10;;
5718;SDS011;2884;47.734;9.244;2024-03-06T05:47:14;3.00;;;2.90;;
5718;SDS011;2884;47.734;9.244;2024-03-06T05:49:40;2.53;;;2.43;;
5718;SDS011;2884;47.734;9.244;2024-03-06T05:52:06;2.40;;;2.30;;
5718;SDS011;2884;47.734;9.244;2024-03-06T05:54:35;1.87;;;1.63;;
5718;SDS011;2884;47.734;9.244;2024-03-06T05:57:05;2.20;;;2.10;;
5718;SDS011;2884;47.734;9.244;2024-03-06T05:59:31;2.23;;;2.13;;
5718;SDS011;2884;47.734;9.244;2024-03-06T06:01:56;2.60;;;2.40;;
5718;SDS011;2884;47.734;9.244;2024-03-06T06:04:22;2.97;;;2.77;;
5718;SDS011;2884;47.734;9.244;2024-03-06T06:06:47;3.17;;;2.90;;
5718;SDS011;2884;47.734;9.244;2024-03-06T06:09:13;3.90;;;2.57;;
5718;SDS011;2884;47.734;9.244;2024-03-06T06:11:44;2.50;;;2.30;;
5718;SDS011;2884;47.734;9.244;2024-03-06T06:14:10;5.13;;;2.30;;
5718;SDS011;2884;47.734;9.244;2024-03-06T06:16:36;2.97;;;2.23;;
5718;SDS011;2884;47.734;9.244;2024-03-06T06:19:06;3.10;;;2.80;;
5718;SDS011;2884;47.734;9.244;2024-03-06T06:21:32;2.30;;;2.20;;
5718;SDS011;2884;47.734;9.244;2024-03-06T06:23:58;2.90;;;2.80;;
5718;SDS011;2884;47.734;9.244;2024-03-06T06:26:24;3.40;;;3.20;;
5718;SDS011;2884;47.734;9.244;2024-03-06T06:28:49;2.63;;;2.53;;
5718;SDS011;2884;47.734;9.244;2024-03-06T06:31:15;3.03;;;2.83;;
5718;SDS011;2884;47.734;9.244;2024-03-06T06:33:41;2.73;;;2.53;;
5718;SDS011;2884;47.734;9.244;2024-03-06T06:36:06;3.17;;;2.97;;
5718;SDS011;2884;47.734;9.244;2024-03-06T06:38:32;3.30;;;3.10;;
5718;SDS011;2884;47.734;9.244;2024-03-06T06:40:58;2.83;;;2.70;;
5718;SDS011;2884;47.734;9.244;2024-03-06T06:43:23;2.87;;;2.77;;
5718;SDS011;2884;47.734;9.244;2024-03-06T06:45:49;3.00;;;2.90;;
5718;SDS011;2884;47.734;9.244;2024-03-06T06:48:16;3.20;;;3.10;;
5718;SDS011;2884;47.734;9.244;2024-03-06T06:50:41;3.70;;;3.50;;
5718;SDS011;2884;47.734;9.244;2024-03-06T06:53:07;6.23;;;3.97;;
5718;SDS011;2884;47.734;9.244;2024-03-06T06:55:32;4.13;;;3.77;;
5718;SDS011;2884;47.734;9.244;2024-03-06T06:57:58;4.30;;;3.90;;
5718;SDS011;2884;47.734;9.244;2024-03-06T07:00:24;5.20;;;4.37;;
5718;SDS011;2884;47.734;9.244;2024-03-06T07:02:50;4.80;;;4.40;;
5718;SDS011;2884;47.734;9.244;2024-03-06T07:05:16;3.90;;;3.60;;
5718;SDS011;2884;47.734;9.244;2024-03-06T07:07:42;4.03;;;3.70;;
5718;SDS011;2884;47.734;9.244;2024-03-06T07:10:07;4.07;;;3.77;;
5718;SDS011;2884;47.734;9.244;2024-03-06T07:12:33;4.47;;;4.10;;
5718;SDS011;2884;47.734;9.244;2024-03-06T07:14:59;4.80;;;3.83;;
5718;SDS011;2884;47.734;9.244;2024-03-06T07:17:25;3.93;;;3.73;;
5718;SDS011;2884;47.734;9.244;2024-03-06T07:19:50;4.07;;;3.77;;
5718;SDS011;2884;47.734;9.244;2024-03-06T07:22:20;4.90;;;4.50;;
5718;SDS011;2884;47.734;9.244;2024-03-06T07:24:46;4.53;;;4.20;;
5718;SDS011;2884;47.734;9.244;2024-03-06T07:27:12;3.80;;;3.50;;
5718;SDS011;2884;47.734;9.244;2024-03-06T07:29:37;4.23;;;3.83;;
5718;SDS011;2884;47.734;9.244;2024-03-06T07:32:03;3.53;;;3.33;;
5718;SDS011;2884;47.734;9.244;2024-03-06T07:34:32;4.73;;;4.40;;
5718;SDS011;2884;47.734;9.244;2024-03-06T07:36:58;4.07;;;3.77;;
5718;SDS011;2884;47.734;9.244;2024-03-06T07:39:27;4.13;;;3.83;;
5718;SDS011;2884;47.734;9.244;2024-03-06T07:41:53;4.00;;;3.80;;
5718;SDS011;2884;47.734;9.244;2024-03-06T07:44:19;3.77;;;3.57;;
5718;SDS011;2884;47.734;9.244;2024-03-06T07:46:45;4.53;;;4.23;;
5718;SDS011;2884;47.734;9.244;2024-03-06T07:49:11;4.10;;;3.90;;
5718;SDS011;2884;47.734;9.244;2024-03-06T07:51:36;3.90;;;3.57;;
5718;SDS011;2884;47.734;9.244;2024-03-06T07:54:02;4.30;;;4.00;;
5718;SDS011;2884;47.734;9.244;2024-03-06T07:56:31;4.00;;;3.70;;
5718;SDS011;2884;47.734;9.244;2024-03-06T07:58:56;7.00;;;3.73;;
5718;SDS011;2884;47.734;9.244;2024-03-06T08:01:22;3.70;;;3.20;;
5718;SDS011;2884;47.734;9.244;2024-03-06T08:03:54;3.00;;;2.80;;
5718;SDS011;2884;47.734;9.244;2024-03-06T08:06:20;3.30;;;3.10;;
5718;SDS011;2884;47.734;9.244;2024-03-06T08:08:46;3.40;;;3.20;;
5718;SDS011;2884;47.734;9.244;2024-03-06T08:11:12;4.53;;;3.00;;
5718;SDS011;2884;47.734;9.244;2024-03-06T08:13:38;3.17;;;2.97;;
5718;SDS011;2884;47.734;9.244;2024-03-06T08:16:04;3.07;;;2.87;;
5718;SDS011;2884;47.734;9.244;2024-03-06T08:18:31;2.80;;;2.70;;
5718;SDS011;2884;47.734;9.244;2024-03-06T08:20:57;3.23;;;3.07;;
5718;SDS011;2884;47.734;9.244;2024-03-06T08:23:23;3.20;;;3.00;;
5718;SDS011;2884;47.734;9.244;2024-03-06T08:25:50;2.70;;;2.60;;
5718;SDS011;2884;47.734;9.244;2024-03-06T08:28:16;12.10;;;3.67;;
5718;SDS011;2884;47.734;9.244;2024-03-06T08:30:41;2.50;;;2.40;;
5718;SDS011;2884;47.734;9.244;2024-03-06T08:33:09;2.57;;;2.47;;
5718;SDS011;2884;47.734;9.244;2024-03-06T08:35:34;2.83;;;2.73;;
5718;SDS011;2884;47.734;9.244;2024-03-06T08:38:00;3.40;;;3.00;;
5718;SDS011;2884;47.734;9.244;2024-03-06T08:40:25;2.73;;;2.63;;
5718;SDS011;2884;47.734;9.244;2024-03-06T08:42:52;5.53;;;2.83;;
5718;SDS011;2884;47.734;9.244;2024-03-06T08:45:18;2.90;;;2.80;;
5718;SDS011;2884;47.734;9.244;2024-03-06T08:47:44;2.57;;;2.47;;
5718;SDS011;2884;47.734;9.244;2024-03-06T08:50:10;2.30;;;2.20;;
5718;SDS011;2884;47.734;9.244;2024-03-06T08:52:37;2.07;;;1.97;;
5718;SDS011;2884;47.734;9.244;2024-03-06T08:55:03;3.73;;;2.27;;
5718;SDS011;2884;47.734;9.244;2024-03-06T08:57:29;2.30;;;2.20;;
5718;SDS011;2884;47.734;9.244;2024-03-06T08:59:58;2.20;;;2.10;;
5718;SDS011;2884;47.734;9.244;2024-03-06T09:02:24;3.50;;;2.40;;
5718;SDS011;2884;47.734;9.244;2024-03-06T09:04:53;2.60;;;2.50;;
5718;SDS011;2884;47.734;9.244;2024-03-06T09:07:19;2.30;;;2.20;;
5718;SDS011;2884;47.734;9.244;2024-03-06T09:09:49;2.40;;;2.20;;
5718;SDS011;2884;47.734;9.244;2024-03-06T09:12:15;2.30;;;2.20;;
5718;SDS011;2884;47.734;9.244;2024-03-06T09:14:41;2.80;;;2.70;;
5718;SDS011;2884;47.734;9.244;2024-03-06T09:17:07;2.57;;;2.47;;
5718;SDS011;2884;47.734;9.244;2024-03-06T09:19:36;2.63;;;2.43;;
5718;SDS011;2884;47.734;9.244;2024-03-06T09:22:01;2.40;;;2.20;;
5718;SDS011;2884;47.734;9.244;2024-03-06T09:24:28;2.60;;;2.50;;
5718;SDS011;2884;47.734;9.244;2024-03-06T09:26:54;2.30;;;2.20;;
5718;SDS011;2884;47.734;9.244;2024-03-06T09:29:20;2.70;;;2.50;;
5718;SDS011;2884;47.734;9.244;2024-03-06T09:31:47;2.73;;;2.50;;
5718;SDS011;2884;47.734;9.244;2024-03-06T09:34:16;2.53;;;2.43;;
5718;SDS011;2884;47.734;9.244;2024-03-06T09:36:45;3.80;;;3.60;;
5718;SDS011;2884;47.734;9.244;2024-03-06T09:39:12;3.20;;;3.00;;
5718;SDS011;2884;47.734;9.244;2024-03-06T09:41:45;2.37;;;2.20;;
5718;SDS011;2884;47.734;9.244;2024-03-06T09:44:12;2.90;;;2.70;;
5718;SDS011;2884;47.734;9.244;2024-03-06T09:46:45;2.60;;;2.50;;
5718;SDS011;2884;47.734;9.244;2024-03-06T09:49:12;2.77;;;2.67;;
5718;SDS011;2884;47.734;9.244;2024-03-06T09:51:42;2.80;;;2.70;;
5718;SDS011;2884;47.734;9.244;2024-03-06T09:54:10;2.40;;;2.30;;
5718;SDS011;2884;47.734;9.244;2024-03-06T09:56:38;2.77;;;2.67;;
5718;SDS011;2884;47.734;9.244;2024-03-06T09:59:04;3.10;;;2.90;;
5718;SDS011;2884;47.734;9.244;2024-03-06T10:01:31;3.10;;;2.90;;
5718;SDS011;2884;47.734;9.244;2024-03-06T10:03:57;2.80;;;2.70;;
5718;SDS011;2884;47.734;9.244;2024-03-06T10:06:26;3.17;;;2.97;;
5718;SDS011;2884;47.734;9.244;2024-03-06T10:08:52;3.27;;;3.07;;
5718;SDS011;2884;47.734;9.244;2024-03-06T10:11:18;2.50;;;2.40;;
5718;SDS011;2884;47.734;9.244;2024-03-06T10:13:43;2.83;;;2.63;;
5718;SDS011;2884;47.734;9.244;2024-03-06T10:16:08;3.43;;;3.13;;
5718;SDS011;2884;47.734;9.244;2024-03-06T10:18:36;3.13;;;2.83;;
5718;SDS011;2884;47.734;9.244;2024-03-06T10:21:04;3.50;;;3.30;;
5718;SDS011;2884;47.734;9.244;2024-03-06T10:23:31;3.47;;;3.27;;
5718;SDS011;2884;47.734;9.244;2024-03-06T10:25:57;3.37;;;3.17;;
5718;SDS011;2884;47.734;9.244;2024-03-06T10:28:23;3.40;;;3.20;;
5718;SDS011;2884;47.734;9.244;2024-03-06T10:30:49;2.70;;;2.60;;
5718;SDS011;2884;47.734;9.244;2024-03-06T10:33:16;3.90;;;3.60;;
5718;SDS011;2884;47.734;9.244;2024-03-06T10:35:46;3.23;;;3.03;;
5718;SDS011;2884;47.734;9.244;2024-03-06T10:38:15;3.23;;;3.13;;
5718;SDS011;2884;47.734;9.244;2024-03-06T10:40:42;3.00;;;2.90;;
5718;SDS011;2884;47.734;9.244;2024-03-06T10:43:10;3.33;;;3.13;;
5718;SDS011;2884;47.734;9.244;2024-03-06T10:45:52;2.67;;;2.57;;
5718;SDS011;2884;47.734;9.244;2024-03-06T10:48:23;2.93;;;2.80;;
5718;SDS011;2884;47.734;9.244;2024-03-06T10:50:49;2.83;;;2.67;;
5718;SDS011;2884;47.734;9.244;2024-03-06T10:53:16;2.73;;;2.63;;
5718;SDS011;2884;47.734;9.244;2024-03-06T10:55:43;3.17;;;3.07;;
5718;SDS011;2884;47.734;9.244;2024-03-06T10:58:12;2.47;;;2.30;;
5718;SDS011;2884;47.734;9.244;2024-03-06T11:00:39;2.70;;;2.60;;
5718;SDS011;2884;47.734;9.244;2024-03-06T11:03:05;2.67;;;2.57;;
5718;SDS011;2884;47.734;9.244;2024-03-06T11:05:34;2.60;;;2.50;;
5718;SDS011;2884;47.734;9.244;2024-03-06T11:08:01;2.60;;;2.50;;
5718;SDS011;2884;47.734;9.244;2024-03-06T11:10:33;3.17;;;2.93;;
5718;SDS011;2884;47.734;9.244;2024-03-06T11:12:59;2.87;;;2.67;;
5718;SDS011;2884;47.734;9.244;2024-03-06T11:15:26;2.57;;;2.40;;
5718;SDS011;2884;47.734;9.244;2024-03-06T11:17:52;2.37;;;2.27;;
5718;SDS011;2884;47.734;9.244;2024-03-06T11:20:20;4.20;;;2.80;;
5718;SDS011;2884;47.734;9.244;2024-03-06T11:28:24;2.30;;;2.20;;
5718;SDS011;2884;47.734;9.244;2024-03-06T11:33:40;3.37;;;2.27;;
5718;SDS011;2884;47.734;9.244;2024-03-06T11:36:26;2.40;;;2.30;;
5718;SDS011;2884;47.734;9.244;2024-03-06T11:39:02;2.30;;;2.20;;
5718;SDS011;2884;47.734;9.244;2024-03-06T11:41:45;2.87;;;2.67;;
5718;SDS011;2884;47.734;9.244;2024-03-06T11:44:16;3.10;;;2.90;;
5718;SDS011;2884;47.734;9.244;2024-03-06T11:49:25;2.53;;;2.33;;
5718;SDS011;2884;47.734;9.244;2024-03-06T11:51:53;2.47;;;2.37;;
5718;SDS011;2884;47.734;9.244;2024-03-06T11:54:19;2.37;;;2.27;;
5718;SDS011;2884;47.734;9.244;2024-03-06T11:56:50;2.57;;;2.47;;
5718;SDS011;2884;47.734;9.244;2024-03-06T11:59:26;3.40;;;3.13;;
5718;SDS011;2884;47.734;9.244;2024-03-06T12:01:53;2.87;;;2.67;;
5718;SDS011;2884;47.734;9.244;2024-03-06T12:04:23;3.10;;;3.00;;
5718;SDS011;2884;47.734;9.244;2024-03-06T12:06:50;2.50;;;2.40;;
5718;SDS011;2884;47.734;9.244;2024-03-06T12:09:16;3.23;;;3.03;;
5718;SDS011;2884;47.734;9.244;2024-03-06T12:11:42;3.07;;;2.80;;
5718;SDS011;2884;47.734;9.244;2024-03-06T12:14:12;2.47;;;2.37;;
5718;SDS011;2884;47.734;9.244;2024-03-06T12:16:55;2.70;;;2.60;;
5718;SDS011;2884;47.734;9.244;2024-03-06T12:19:22;3.33;;;3.13;;
5718;SDS011;2884;47.734;9.244;2024-03-06T12:21:48;3.00;;;2.80;;
5718;SDS011;2884;47.734;9.244;2024-03-06T12:24:15;2.93;;;2.83;;
5718;SDS011;2884;47.734;9.244;2024-03-06T12:26:43;3.03;;;2.73;;
5718;SDS011;2884;47.734;9.244;2024-03-06T12:29:10;3.00;;;2.77;;
5718;SDS011;2884;47.734;9.244;2024-03-06T12:31:37;3.00;;;2.80;;
5718;SDS011;2884;47.734;9.244;2024-03-06T12:34:03;3.63;;;3.40;;
5718;SDS011;2884;47.734;9.244;2024-03-06T12:36:30;3.27;;;3.07;;
5718;SDS011;2884;47.734;9.244;2024-03-06T12:38:58;3.17;;;2.97;;
5718;SDS011;2884;47.734;9.244;2024-03-06T12:41:24;3.00;;;2.90;;
5718;SDS011;2884;47.734;9.244;2024-03-06T12:43:51;3.53;;;3.33;;
5718;SDS011;2884;47.734;9.244;2024-03-06T12:46:18;3.80;;;3.50;;
5718;SDS011;2884;47.734;9.244;2024-03-06T12:48:44;3.10;;;2.70;;
5718;SDS011;2884;47.734;9.244;2024-03-06T12:51:10;4.30;;;3.73;;
5718;SDS011;2884;47.734;9.244;2024-03-06T12:53:36;5.27;;;4.07;;
5718;SDS011;2884;47.734;9.244;2024-03-06T12:56:02;3.77;;;3.47;;
5718;SDS011;2884;47.734;9.244;2024-03-06T12:58:28;3.67;;;3.20;;
5718;SDS011;2884;47.734;9.244;2024-03-06T13:00:53;3.50;;;3.20;;
5718;SDS011;2884;47.734;9.244;2024-03-06T13:03:19;3.67;;;3.40;;
5718;SDS011;2884;47.734;9.244;2024-03-06T13:05:45;3.10;;;2.90;;
5718;SDS011;2884;47.734;9.244;2024-03-06T13:08:11;2.30;;;2.20;;
5718;SDS011;2884;47.734;9.244;2024-03-06T13:10:39;1.40;;;1.40;;
5718;SDS011;2884;47.734;9.244;2024-03-06T13:13:06;1.80;;;1.70;;
5718;SDS011;2884;47.734;9.244;2024-03-06T13:15:36;1.30;;;1.30;;
5718;SDS011;2884;47.734;9.244;2024-03-06T13:18:04;1.67;;;1.57;;
5718;SDS011;2884;47.734;9.244;2024-03-06T13:20:30;1.77;;;1.67;;
5718;SDS011;2884;47.734;9.244;2024-03-06T13:22:55;1.50;;;1.40;;
5718;SDS011;2884;47.734;9.244;2024-03-06T13:25:21;1.60;;;1.60;;
5718;SDS011;2884;47.734;9.244;2024-03-06T13:27:47;2.30;;;2.10;;
5718;SDS011;2884;47.734;9.244;2024-03-06T13:30:12;1.63;;;1.57;;
5718;SDS011;2884;47.734;9.244;2024-03-06T13:32:38;1.80;;;1.70;;
5718;SDS011;2884;47.734;9.244;2024-03-06T13:35:04;1.90;;;1.80;;
5718;SDS011;2884;47.734;9.244;2024-03-06T13:37:37;2.10;;;1.90;;
5718;SDS011;2884;47.734;9.244;2024-03-06T13:40:03;1.80;;;1.70;;
5718;SDS011;2884;47.734;9.244;2024-03-06T13:42:32;1.70;;;1.60;;
5718;SDS011;2884;47.734;9.244;2024-03-06T13:44:58;1.60;;;1.50;;
5718;SDS011;2884;47.734;9.244;2024-03-06T13:47:23;1.60;;;1.60;;
5718;SDS011;2884;47.734;9.244;2024-03-06T13:49:49;1.67;;;1.67;;
5718;SDS011;2884;47.734;9.244;2024-03-06T13:52:15;1.00;;;1.00;;
5718;SDS011;2884;47.734;9.244;2024-03-06T13:54:45;1.40;;;1.40;;
5718;SDS011;2884;47.734;9.244;2024-03-06T13:57:11;1.70;;;1.60;;
5718;SDS011;2884;47.734;9.244;2024-03-06T13:59:37;1.53;;;1.30;;
5718;SDS011;2884;47.734;9.244;2024-03-06T14:02:03;1.00;;;1.00;;
5718;SDS011;2884;47.734;9.244;2024-03-06T14:04:29;0.90;;;0.90;;
5718;SDS011;2884;47.734;9.244;2024-03-06T14:06:55;1.20;;;1.20;;
5718;SDS011;2884;47.734;9.244;2024-03-06T14:09:22;1.07;;;1.07;;
5718;SDS011;2884;47.734;9.244;2024-03-06T14:11:50;1.10;;;1.10;;
5718;SDS011;2884;47.734;9.244;2024-03-06T14:14:16;0.90;;;0.90;;
5718;SDS011;2884;47.734;9.244;2024-03-06T14:16:43;0.77;;;0.77;;
5718;SDS011;2884;47.734;9.244;2024-03-06T14:19:08;0.90;;;0.90;;
5718;SDS011;2884;47.734;9.244;2024-03-06T14:21:34;0.70;;;0.70;;
5718;SDS011;2884;47.734;9.244;2024-03-06T14:24:03;1.10;;;0.83;;
5718;SDS011;2884;47.734;9.244;2024-03-06T14:26:30;0.80;;;0.80;;
5718;SDS011;2884;47.734;9.244;2024-03-06T14:28:56;1.07;;;1.07;;
5718;SDS011;2884;47.734;9.244;2024-03-06T14:31:22;0.70;;;0.70;;
5718;SDS011;2884;47.734;9.244;2024-03-06T14:33:50;1.43;;;1.00;;
5718;SDS011;2884;47.734;9.244;2024-03-06T14:36:16;0.90;;;0.90;;
5718;SDS011;2884;47.734;9.244;2024-03-06T14:38:42;1.00;;;1.00;;
5718;SDS011;2884;47.734;9.244;2024-03-06T14:41:09;1.03;;;0.90;;
5718;SDS011;2884;47.734;9.244;2024-03-06T14:43:35;0.90;;;0.90;;
5718;SDS011;2884;47.734;9.244;2024-03-06T14:46:06;3.17;;;1.60;;
5718;SDS011;2884;47.734;9.244;2024-03-06T14:48:33;0.90;;;0.90;;
5718;SDS011;2884;47.734;9.244;2024-03-06T14:50:59;1.07;;;1.00;;
5718;SDS011;2884;47.734;9.244;2024-03-06T14:53:25;1.03;;;1.00;;
5718;SDS011;2884;47.734;9.244;2024-03-06T14:55:51;1.00;;;1.00;;
5718;SDS011;2884;47.734;9.244;2024-03-06T14:58:16;1.10;;;1.10;;
5718;SDS011;2884;47.734;9.244;2024-03-06T15:00:42;0.97;;;0.97;;
5718;SDS011;2884;47.734;9.244;2024-03-06T15:03:07;1.43;;;1.00;;
5718;SDS011;2884;47.734;9.244;2024-03-06T15:05:34;0.80;;;0.80;;
5718;SDS011;2884;47.734;9.244;2024-03-06T15:08:00;1.43;;;0.90;;
5718;SDS011;2884;47.734;9.244;2024-03-06T15:10:26;1.13;;;1.13;;
5718;SDS011;2884;47.734;9.244;2024-03-06T15:12:51;1.30;;;1.20;;
5718;SDS011;2884;47.734;9.244;2024-03-06T15:15:17;1.27;;;1.27;;
5718;SDS011;2884;47.734;9.244;2024-03-06T15:17:42;1.00;;;1.00;;
5718;SDS011;2884;47.734;9.244;2024-03-06T15:20:11;1.10;;;1.07;;
5718;SDS011;2884;47.734;9.244;2024-03-06T15:22:37;1.07;;;0.90;;
5718;SDS011;2884;47.734;9.244;2024-03-06T15:25:10;0.97;;;0.87;;